Time;durP1;ratioP1;P1;durP2;ratioP2;P2;SDS_P1;SDS_P2;PMS_P1;PMS_P2;Temp;Humidity;BMP_temperature;BMP_pressure;BME280_temperature;BME280_humidity;BME280_pressure;Samples;Min_cycle;Max_cycle;Signal;HPM_P1;HPM_P2
2021/04/08 00:00:00;;;;;;;6.97;4.27;;;;;;;1.56;80.34;98909.25;1767433;81;22247;-65
2021/04/08 00:02:27;;;;;;;6.57;4.30;;;;;;;1.55;80.38;98914.23;1768355;79;21379;-63
2021/04/08 00:04:55;;;;;;;10.67;7.00;;;;;;;1.55;80.18;98914.23;1775464;79;21117;-65
2021/04/08 00:07:23;;;;;;;5.00;4.07;;;;;;;1.53;80.21;98913.66;1778635;79;20994;-63
2021/04/08 00:09:52;;;;;;;6.37;3.60;;;;;;;1.51;79.92;98923.63;1774711;79;21126;-64
2021/04/08 00:12:20;;;;;;;7.23;5.27;;;;;;;1.50;79.94;98916.20;1767797;81;21115;-66
2021/04/08 00:14:47;;;;;;;6.80;5.67;;;;;;;1.48;80.01;98934.16;1768636;79;21211;-65
2021/04/08 00:17:16;;;;;;;6.37;5.47;;;;;;;1.46;79.89;98939.34;1796660;79;21161;-64
2021/04/08 00:19:43;;;;;;;5.20;4.17;;;;;;;1.44;80.00;98918.35;1794943;79;21549;-64
2021/04/08 00:22:11;;;;;;;8.00;5.07;;;;;;;1.42;80.05;98924.89;1799355;79;21168;-64
2021/04/08 00:24:39;;;;;;;4.50;4.10;;;;;;;1.41;80.20;98930.70;1787064;79;21191;-64
2021/04/08 00:27:08;;;;;;;8.00;5.03;;;;;;;1.39;80.25;98951.28;1794343;79;22138;-65
2021/04/08 00:29:35;;;;;;;8.13;5.13;;;;;;;1.38;80.33;98936.94;1797155;79;20986;-64
2021/04/08 00:32:06;;;;;;;4.33;3.90;;;;;;;1.37;80.46;98946.72;1799100;78;21606;-64
2021/04/08 00:34:34;;;;;;;6.17;4.63;;;;;;;1.37;80.44;98942.74;1780291;79;21105;-65
2021/04/08 00:37:03;;;;;;;5.80;4.97;;;;;;;1.38;80.39;98940.91;1775779;79;21132;-64
2021/04/08 00:39:30;;;;;;;7.30;5.77;;;;;;;1.37;80.37;98941.93;1767910;80;21226;-64
2021/04/08 00:42:00;;;;;;;6.63;4.70;;;;;;;1.37;80.23;98957.31;1750443;82;21197;-64
2021/04/08 00:44:29;;;;;;;7.50;5.53;;;;;;;1.34;80.25;98948.47;1733128;80;21007;-65
2021/04/08 00:46:57;;;;;;;8.67;4.87;;;;;;;1.34;80.18;98958.25;1788195;79;21160;-63
2021/04/08 00:49:25;;;;;;;6.93;5.23;;;;;;;1.33;80.21;98952.64;1773393;79;21172;-65
2021/04/08 00:51:52;;;;;;;8.10;5.53;;;;;;;1.32;80.14;98954.48;1793554;79;21211;-66
2021/04/08 00:54:21;;;;;;;4.87;4.20;;;;;;;1.30;80.16;98967.10;1783352;79;21115;-62
2021/04/08 00:56:49;;;;;;;9.20;6.20;;;;;;;1.29;80.10;98964.17;1785231;79;21143;-66
2021/04/08 00:59:19;;;;;;;11.73;5.90;;;;;;;1.28;80.10;98975.27;1762411;81;21597;-65
2021/04/08 01:01:47;;;;;;;8.87;5.73;;;;;;;1.28;80.16;98983.22;1774849;79;21100;-66
2021/04/08 01:04:15;;;;;;;8.33;5.67;;;;;;;1.26;80.10;98981.78;1766846;81;22303;-65
2021/04/08 01:06:43;;;;;;;9.57;5.67;;;;;;;1.24;80.15;98976.72;1747115;81;21168;-64
2021/04/08 01:09:10;;;;;;;8.17;6.50;;;;;;;1.22;80.17;98981.39;1768134;80;21557;-67
2021/04/08 01:11:40;;;;;;;7.37;5.90;;;;;;;1.23;80.18;98980.37;1775033;79;21146;-63
2021/04/08 01:14:08;;;;;;;6.53;5.17;;;;;;;1.21;80.18;99005.42;1778434;79;21546;-65
2021/04/08 01:16:44;;;;;;;5.60;4.70;;;;;;;1.22;80.16;98991.17;1768149;79;21206;-65
2021/04/08 01:19:53;;;;;;;6.93;5.50;;;;;;;1.25;80.09;98991.56;1846907;76;23293;-66
2021/04/08 01:22:55;;;;;;;6.03;4.07;;;;;;;1.20;80.07;98990.05;1817250;79;22265;-66
2021/04/08 01:25:45;;;;;;;8.70;4.97;;;;;;;1.22;80.30;98987.20;1791356;79;21208;-62
2021/04/08 01:28:35;;;;;;;5.93;3.93;;;;;;;1.22;80.30;98996.47;1784013;79;21610;-63
2021/04/08 01:31:06;;;;;;;8.70;5.37;;;;;;;1.23;80.39;99015.31;1780989;79;21106;-63
2021/04/08 01:33:46;;;;;;;6.40;5.50;;;;;;;1.23;80.29;99009.51;1758714;79;21603;-63
2021/04/08 01:36:26;;;;;;;5.10;4.20;;;;;;;1.23;80.26;99017.97;1767960;80;21034;-64
2021/04/08 01:38:58;;;;;;;6.23;5.37;;;;;;;1.23;80.31;99009.51;1784599;80;21369;-63
2021/04/08 01:41:26;;;;;;;6.53;4.43;;;;;;;1.25;80.34;99008.78;1784902;80;21030;-63
2021/04/08 01:43:56;;;;;;;5.50;4.60;;;;;;;1.25;80.26;99014.08;1784071;80;20936;-62
2021/04/08 01:46:26;;;;;;;5.90;4.95;;;;;;;1.25;80.14;99017.23;1772120;80;26609;-63
2021/04/08 01:48:55;;;;;;;4.53;4.03;;;;;;;1.26;80.12;99022.84;1705462;84;21172;-62
2021/04/08 01:51:24;;;;;;;7.57;5.43;;;;;;;1.24;80.11;99024.89;1703447;82;21198;-63
2021/04/08 01:53:56;;;;;;;6.47;5.67;;;;;;;1.23;80.02;99037.32;1763865;80;21573;-63
2021/04/08 01:56:27;;;;;;;8.40;5.20;;;;;;;1.21;79.97;99041.17;1771102;80;21157;-64
2021/04/08 01:58:55;;;;;;;7.40;5.97;;;;;;;1.20;79.93;99033.73;1784517;80;21562;-62
2021/04/08 02:01:23;;;;;;;7.63;5.97;;;;;;;1.21;79.94;99042.50;1785115;80;21574;-64
2021/04/08 02:03:52;;;;;;;6.60;5.17;;;;;;;1.18;79.93;99041.60;1754594;80;21254;-62
2021/04/08 02:06:24;;;;;;;9.20;6.43;;;;;;;1.19;79.92;99063.91;1764528;80;21118;-65
2021/04/08 02:08:51;;;;;;;6.20;4.90;;;;;;;1.16;79.86;99052.39;1785033;80;21141;-63
2021/04/08 02:11:23;;;;;;;11.50;7.43;;;;;;;1.18;79.88;99056.16;1784929;80;20975;-64
2021/04/08 02:13:50;;;;;;;12.50;5.73;;;;;;;1.18;79.82;99046.39;1784145;80;21105;-63
2021/04/08 02:16:19;;;;;;;6.70;5.70;;;;;;;1.18;79.78;99054.84;1784227;80;21365;-64
2021/04/08 02:18:49;;;;;;;6.20;5.53;;;;;;;1.18;79.67;99060.14;1754657;80;21630;-62
2021/04/08 02:21:16;;;;;;;8.53;5.97;;;;;;;1.16;79.65;99068.28;1783445;80;21538;-64
2021/04/08 02:23:49;;;;;;;7.97;6.17;;;;;;;1.15;79.71;99073.80;1755574;80;21585;-64
2021/04/08 02:26:18;;;;;;;7.80;6.20;;;;;;;1.14;79.69;99088.87;1760551;80;21148;-62
2021/04/08 02:28:47;;;;;;;6.00;5.40;;;;;;;1.12;79.67;99088.75;1753910;81;22371;-63
2021/04/08 02:31:17;;;;;;;14.00;8.93;;;;;;;1.12;79.76;99075.51;1753246;81;21202;-64
2021/04/08 02:33:46;;;;;;;7.13;6.40;;;;;;;1.10;79.81;99082.36;1779116;80;21157;-64
2021/04/08 02:36:14;;;;;;;8.53;6.83;;;;;;;1.10;79.80;99088.97;1763483;80;21773;-62
2021/04/08 02:38:44;;;;;;;7.00;5.90;;;;;;;1.11;79.82;99091.91;1704920;84;21594;-64
2021/04/08 02:41:12;;;;;;;8.13;6.00;;;;;;;1.12;79.59;99088.75;1689735;85;22247;-64
2021/04/08 02:43:40;;;;;;;7.13;6.40;;;;;;;1.11;79.49;99109.12;1688576;83;21188;-65
2021/04/08 02:46:09;;;;;;;7.93;6.27;;;;;;;1.12;79.36;99101.98;1693946;83;21457;-64
2021/04/08 02:48:37;;;;;;;8.27;5.50;;;;;;;1.10;79.34;99109.34;1749881;81;21124;-63
2021/04/08 02:51:09;;;;;;;10.80;6.50;;;;;;;1.09;79.39;99111.17;1731650;82;21160;-62
2021/04/08 02:54:12;;;;;;;11.43;6.90;;;;;;;1.09;79.27;99103.73;1758542;80;21400;-63
2021/04/08 02:56:57;;;;;;;7.60;6.47;;;;;;;1.09;79.18;99115.14;1760137;80;21637;-63
2021/04/08 02:59:42;;;;;;;8.00;5.63;;;;;;;1.06;79.24;99104.94;1771913;80;21574;-65
2021/04/08 03:02:17;;;;;;;6.00;5.27;;;;;;;1.08;79.30;99116.16;1774200;80;21609;-65
2021/04/08 03:04:48;;;;;;;11.60;6.83;;;;;;;1.08;79.28;99114.83;1741752;80;21097;-64
2021/04/08 03:07:23;;;;;;;7.13;5.70;;;;;;;1.09;79.19;99128.89;1768747;80;21362;-63
2021/04/08 03:09:51;;;;;;;7.47;6.20;;;;;;;1.07;79.00;99121.64;1762960;80;21022;-63
2021/04/08 03:12:19;;;;;;;9.90;6.50;;;;;;;1.06;78.87;99138.53;1777183;80;21575;-63
2021/04/08 03:14:51;;;;;;;9.03;6.97;;;;;;;1.05;78.88;99132.45;1753995;80;21148;-65
2021/04/08 03:17:29;;;;;;;8.73;7.08;;;;;;;1.04;78.89;99144.56;1698662;84;21132;-63
2021/04/08 03:19:58;;;;;;;9.30;6.60;;;;;;;1.03;78.94;99146.89;1689589;85;21259;-63
2021/04/08 03:22:26;;;;;;;7.23;6.53;;;;;;;1.04;78.80;99153.33;1711918;83;21178;-64
2021/04/08 03:24:56;;;;;;;8.83;6.43;;;;;;;1.04;78.89;99145.38;1732152;82;21026;-65
2021/04/08 03:27:26;;;;;;;12.33;8.00;;;;;;;1.07;78.92;99154.73;1661716;85;21189;-64
2021/04/08 03:29:54;;;;;;;8.70;7.07;;;;;;;1.09;78.75;99150.06;1691951;82;21133;-62
2021/04/08 03:32:22;;;;;;;8.10;6.90;;;;;;;1.08;78.67;99158.52;1768337;80;21266;-63
2021/04/08 03:34:50;;;;;;;10.30;6.97;;;;;;;1.09;78.66;99169.92;1783131;80;20981;-64
2021/04/08 03:37:18;;;;;;;9.63;7.87;;;;;;;1.10;78.65;99169.73;1755866;80;21645;-64
2021/04/08 03:39:48;;;;;;;10.30;7.43;;;;;;;1.08;78.38;99170.94;1783411;80;22233;-62
2021/04/08 03:42:16;;;;;;;8.73;6.83;;;;;;;1.07;78.25;99171.44;1754974;80;21153;-63
2021/04/08 03:44:45;;;;;;;13.20;8.40;;;;;;;1.04;78.12;99178.98;1756572;80;21343;-63
2021/04/08 03:47:13;;;;;;;8.87;7.10;;;;;;;1.03;78.05;99187.43;1784259;80;21129;-63
2021/04/08 03:49:43;;;;;;;14.00;7.90;;;;;;;1.03;77.97;99183.46;1784265;80;21585;-65
2021/04/08 03:52:11;;;;;;;11.27;6.60;;;;;;;1.04;77.77;99196.19;1758871;80;21586;-64
2021/04/08 03:54:39;;;;;;;8.17;6.40;;;;;;;1.04;77.62;99197.01;1753488;80;21407;-66
2021/04/08 03:57:10;;;;;;;11.03;8.13;;;;;;;1.06;77.51;99194.14;1736771;80;21399;-66
2021/04/08 03:59:40;;;;;;;9.77;7.10;;;;;;;1.07;77.32;99199.75;1783999;80;20983;-65
2021/04/08 04:02:09;;;;;;;9.57;7.93;;;;;;;1.09;77.27;99196.41;1767718;80;21153;-66
2021/04/08 04:04:37;;;;;;;9.13;7.70;;;;;;;1.10;77.11;99200.19;1784260;80;21570;-64
2021/04/08 04:07:05;;;;;;;8.83;7.93;;;;;;;1.15;76.99;99199.59;1784303;80;21585;-65
2021/04/08 04:09:32;;;;;;;11.43;8.73;;;;;;;1.18;76.74;99211.91;1772122;80;21637;-63
2021/04/08 04:12:00;;;;;;;9.53;6.13;;;;;;;1.20;76.41;99213.83;1704314;84;21066;-63
2021/04/08 04:14:29;;;;;;;12.00;7.80;;;;;;;1.22;76.25;99214.96;1731074;82;21140;-64
2021/04/08 04:16:58;;;;;;;9.03;6.70;;;;;;;1.21;76.00;99222.09;1759460;80;21077;-62
2021/04/08 04:19:27;;;;;;;11.97;8.50;;;;;;;1.20;75.73;99219.66;1753646;80;21165;-62
2021/04/08 04:21:57;;;;;;;15.57;7.47;;;;;;;1.21;75.79;99225.24;1703591;84;21211;-63
2021/04/08 04:24:26;;;;;;;11.40;8.13;;;;;;;1.22;75.71;99222.91;1702303;84;21610;-64
2021/04/08 04:26:54;;;;;;;11.10;8.73;;;;;;;1.23;75.64;99228.02;1702229;84;21204;-62
2021/04/08 04:29:21;;;;;;;8.97;7.17;;;;;;;1.26;75.49;99224.13;1708321;82;21496;-63
2021/04/08 04:31:49;;;;;;;10.77;8.47;;;;;;;1.28;75.41;99240.66;1783368;80;21098;-67
2021/04/08 04:34:18;;;;;;;11.40;7.73;;;;;;;1.31;75.42;99238.91;1753430;80;22369;-63
2021/04/08 04:36:47;;;;;;;10.80;6.93;;;;;;;1.35;75.48;99239.31;1704831;84;21203;-65
2021/04/08 04:39:15;;;;;;;9.97;7.37;;;;;;;1.36;75.34;99233.83;1705773;82;21210;-62
2021/04/08 04:41:43;;;;;;;11.37;7.17;;;;;;;1.38;75.44;99245.05;1731517;82;21593;-64
2021/04/08 04:44:11;;;;;;;11.43;8.30;;;;;;;1.40;75.26;99242.18;1783393;80;21138;-65
2021/04/08 04:46:39;;;;;;;8.13;6.17;;;;;;;1.42;75.19;99252.90;1784221;80;21291;-65
2021/04/08 04:49:08;;;;;;;11.90;8.30;;;;;;;1.44;75.15;99244.76;1761319;80;21594;-66
2021/04/08 04:51:36;;;;;;;10.23;8.03;;;;;;;1.46;74.93;99249.33;1704840;84;21212;-62
2021/04/08 04:54:05;;;;;;;10.77;7.70;;;;;;;1.48;74.95;99253.42;1702384;82;21573;-66
2021/04/08 04:56:33;;;;;;;12.40;9.47;;;;;;;1.51;74.80;99252.19;1753277;81;21145;-64
2021/04/08 04:59:01;;;;;;;12.03;9.17;;;;;;;1.53;74.62;99258.12;1696606;84;21859;-64
2021/04/08 05:01:29;;;;;;;12.10;9.63;;;;;;;1.57;74.47;99265.97;1702245;84;21172;-65
2021/04/08 05:03:57;;;;;;;10.70;9.03;;;;;;;1.61;74.30;99271.16;1778561;80;21114;-66
2021/04/08 05:06:25;;;;;;;10.57;7.20;;;;;;;1.65;74.03;99269.23;1784166;80;21055;-64
2021/04/08 05:08:55;;;;;;;12.03;8.73;;;;;;;1.70;73.78;99276.06;1764975;80;20979;-64
2021/04/08 05:11:23;;;;;;;13.53;10.50;;;;;;;1.76;73.61;99274.44;1692495;84;21612;-64
2021/04/08 05:13:52;;;;;;;14.30;9.30;;;;;;;1.80;73.17;99273.02;1689633;83;21419;-64
2021/04/08 05:16:20;;;;;;;12.20;9.50;;;;;;;1.84;73.01;99274.23;1704718;84;21165;-65
2021/04/08 05:18:48;;;;;;;14.03;10.07;;;;;;;1.88;72.97;99282.59;1718342;82;21184;-63
2021/04/08 05:21:16;;;;;;;14.70;10.57;;;;;;;1.93;72.50;99273.52;1784194;80;21230;-64
2021/04/08 05:23:44;;;;;;;14.37;8.60;;;;;;;1.97;72.47;99276.05;1762042;80;21182;-65
2021/04/08 05:26:13;;;;;;;11.67;9.30;;;;;;;2.01;72.15;99283.94;1704544;84;21732;-64
2021/04/08 05:28:40;;;;;;;15.10;9.03;;;;;;;2.05;71.62;99287.30;1725361;82;20986;-66
2021/04/08 05:31:09;;;;;;;12.30;9.00;;;;;;;2.10;71.51;99280.05;1784173;80;21669;-65
2021/04/08 05:33:37;;;;;;;14.03;11.10;;;;;;;2.16;71.14;99281.86;1779100;80;21098;-65
2021/04/08 05:36:07;;;;;;;12.53;9.80;;;;;;;2.18;70.77;99286.46;1767938;80;21379;-64
2021/04/08 05:38:35;;;;;;;13.03;11.10;;;;;;;2.24;70.85;99293.61;1704778;84;21612;-64
2021/04/08 05:41:03;;;;;;;11.50;9.60;;;;;;;2.29;70.41;99299.62;1689435;85;21168;-64
2021/04/08 05:43:30;;;;;;;17.00;10.60;;;;;;;2.35;70.16;99302.24;1703950;84;21621;-65
2021/04/08 05:45:58;;;;;;;11.73;9.10;;;;;;;2.43;69.64;99307.36;1701436;83;21132;-66
2021/04/08 05:48:26;;;;;;;15.90;11.57;;;;;;;2.50;69.21;99300.69;1731507;82;21369;-65
2021/04/08 05:50:54;;;;;;;13.13;9.07;;;;;;;2.55;68.77;99299.56;1784214;80;21189;-66
2021/04/08 05:53:23;;;;;;;14.60;11.57;;;;;;;2.59;68.33;99304.24;1768632;80;21629;-65
2021/04/08 05:55:50;;;;;;;13.50;10.43;;;;;;;2.62;68.12;99302.52;1763115;80;21594;-65
2021/04/08 05:58:18;;;;;;;12.40;10.03;;;;;;;2.69;68.18;99304.32;1784231;80;21177;-64
2021/04/08 06:00:47;;;;;;;15.63;9.77;;;;;;;2.74;67.91;99309.83;1783798;80;21149;-65
2021/04/08 06:03:15;;;;;;;15.60;10.27;;;;;;;2.78;67.78;99305.21;1755581;80;21618;-64
2021/04/08 06:05:43;;;;;;;17.30;10.40;;;;;;;2.84;68.20;99302.23;1753280;81;21018;-65
2021/04/08 06:08:12;;;;;;;16.43;10.67;;;;;;;2.91;68.20;99308.36;1775670;80;21065;-63
2021/04/08 06:10:41;;;;;;;14.17;11.60;;;;;;;2.99;68.28;99302.30;1776744;80;21054;-63
2021/04/08 06:13:09;;;;;;;14.33;10.87;;;;;;;3.06;68.03;99315.56;1771063;80;21201;-64
2021/04/08 06:15:40;;;;;;;18.07;12.43;;;;;;;3.15;67.92;99334.73;1784215;80;21165;-66
2021/04/08 06:18:09;;;;;;;14.90;11.00;;;;;;;3.20;67.63;99337.06;1775019;80;21530;-63
2021/04/08 06:20:37;;;;;;;14.47;11.33;;;;;;;3.24;67.45;99338.78;1754644;80;21242;-62
2021/04/08 06:23:05;;;;;;;15.75;12.70;;;;;;;3.25;67.38;99347.88;1765338;80;21125;-64
2021/04/08 06:25:33;;;;;;;15.88;11.03;;;;;;;3.26;67.38;99355.34;1749079;81;21382;-64
2021/04/08 06:28:01;;;;;;;22.67;15.68;;;;;;;3.25;67.65;99350.53;1749007;81;21125;-64
2021/04/08 06:30:29;;;;;;;16.07;11.25;;;;;;;3.26;67.95;99342.05;1750472;80;21142;-66
2021/04/08 06:32:57;;;;;;;12.90;11.43;;;;;;;3.29;68.37;99354.39;1769289;80;21171;-65
2021/04/08 06:35:25;;;;;;;15.58;11.45;;;;;;;3.30;68.32;99353.37;1749113;80;21148;-65
2021/04/08 06:37:54;;;;;;;17.20;12.35;;;;;;;3.28;68.29;99347.95;1748459;82;22683;-65
2021/04/08 06:40:22;;;;;;;20.00;12.85;;;;;;;3.28;68.58;99350.61;1745586;81;21623;-65
2021/04/08 06:42:53;;;;;;;16.93;12.98;;;;;;;3.30;68.87;99356.03;1765221;81;21595;-67
2021/04/08 06:45:24;;;;;;;15.78;12.18;;;;;;;3.34;69.20;99351.92;1767584;81;21191;-66
2021/04/08 06:48:07;;;;;;;14.93;12.37;;;;;;;3.40;69.09;99363.55;1767702;81;21124;-65
2021/04/08 06:50:39;;;;;;;14.87;10.95;;;;;;;3.43;68.96;99370.59;1765472;81;22302;-65
2021/04/08 06:53:07;;;;;;;14.75;11.48;;;;;;;3.47;68.78;99368.31;1747559;81;21191;-64
2021/04/08 06:55:36;;;;;;;17.45;12.63;;;;;;;3.44;68.25;99367.42;1767694;81;21552;-64
2021/04/08 06:58:05;;;;;;;17.07;13.88;;;;;;;3.42;68.65;99383.56;1767507;81;21206;-65
2021/04/08 07:00:34;;;;;;;15.75;11.33;;;;;;;3.43;68.49;99375.09;1767361;81;21211;-66
2021/04/08 07:03:04;;;;;;;15.35;11.90;;;;;;;3.44;68.79;99376.72;1746619;81;21993;-63
2021/04/08 07:05:32;;;;;;;17.70;11.78;;;;;;;3.45;69.16;99374.38;1767492;81;21195;-64
2021/04/08 07:08:00;;;;;;;15.03;11.85;;;;;;;3.48;69.32;99364.62;1767572;81;21179;-62
2021/04/08 07:10:28;;;;;;;18.37;13.70;;;;;;;3.51;69.20;99389.45;1748490;81;21032;-66
2021/04/08 07:12:58;;;;;;;16.70;12.90;;;;;;;3.53;69.18;99388.74;1745352;81;21122;-65
2021/04/08 07:15:27;;;;;;;14.73;12.50;;;;;;;3.55;69.25;99389.33;1767584;81;22131;-64
2021/04/08 07:17:55;;;;;;;16.87;13.60;;;;;;;3.58;69.38;99382.79;1767536;81;21199;-64
2021/04/08 07:20:25;;;;;;;14.05;10.60;;;;;;;3.63;69.36;99385.11;1762405;80;21625;-65
2021/04/08 07:23:11;;;;;;;14.95;11.68;;;;;;;3.67;69.24;99394.30;1756889;80;21043;-66
2021/04/08 07:25:54;;;;;;;18.73;13.05;;;;;;;3.71;68.70;99406.13;1782722;80;21151;-65
2021/04/08 07:28:36;;;;;;;16.07;12.10;;;;;;;3.78;68.55;99400.80;1836120;76;23303;-63
2021/04/08 07:31:24;;;;;;;15.18;12.68;;;;;;;3.73;67.85;99401.43;1783699;80;21011;-65
2021/04/08 07:33:54;;;;;;;23.02;14.38;;;;;;;3.74;68.35;99399.59;1766399;80;21375;-65
2021/04/08 07:36:38;;;;;;;13.20;10.82;;;;;;;3.82;68.60;99407.31;1752067;81;21026;-66
2021/04/08 07:39:16;;;;;;;18.10;12.50;;;;;;;3.86;68.08;99403.19;1725465;82;21033;-67
2021/04/08 07:41:45;;;;;;;19.90;14.68;;;;;;;3.93;67.94;99403.98;1701514;84;21007;-67
2021/04/08 07:44:13;;;;;;;15.43;12.80;;;;;;;3.97;67.87;99401.19;1775936;80;21562;-67
2021/04/08 07:46:44;;;;;;;16.35;14.60;;;;;;;4.03;67.94;99404.84;1784990;80;21448;-66
2021/04/08 07:49:33;;;;;;;18.42;12.03;;;;;;;4.08;67.72;99427.61;1784269;80;21066;-65
2021/04/08 07:52:31;;;;;;;18.87;14.07;;;;;;;4.11;67.74;99416.55;1784967;80;21019;-74
2021/04/08 07:55:10;;;;;;;15.43;11.85;;;;;;;4.15;67.27;99422.56;1784495;80;21018;-68
2021/04/08 07:58:12;;;;;;;19.15;13.08;;;;;;;4.21;67.25;99418.23;1785143;80;21578;-68
2021/04/08 08:00:51;;;;;;;17.07;13.20;;;;;;;4.27;67.24;99431.47;1772958;80;21180;-66
2021/04/08 08:03:25;;;;;;;23.18;15.72;;;;;;;4.28;66.74;99434.45;1767920;80;21149;-68
2021/04/08 08:05:58;;;;;;;16.95;13.83;;;;;;;4.28;66.45;99437.11;1759657;80;21133;-69
2021/04/08 08:08:36;;;;;;;16.95;12.25;;;;;;;4.27;66.82;99441.30;1784035;80;21177;-68
2021/04/08 08:11:09;;;;;;;16.42;14.15;;;;;;;4.27;66.85;99453.28;1780671;80;21117;-68
2021/04/08 08:13:51;;;;;;;31.15;11.78;;;;;;;4.31;66.89;99453.18;1768810;80;21113;-69
2021/04/08 08:16:24;;;;;;;21.68;13.72;;;;;;;4.35;66.55;99447.20;1770194;80;21228;-67
2021/04/08 08:18:53;;;;;;;19.10;14.13;;;;;;;4.42;66.61;99448.47;1784046;80;21116;-69
2021/04/08 08:21:36;;;;;;;18.77;13.32;;;;;;;4.46;66.75;99439.02;1752897;80;20991;-70
2021/04/08 08:24:13;;;;;;;18.17;13.68;;;;;;;4.51;67.08;99453.83;1752305;81;21026;-68
2021/04/08 08:26:46;;;;;;;18.80;13.50;;;;;;;4.62;67.15;99443.81;1754388;80;22208;-68
2021/04/08 08:29:25;;;;;;;24.37;15.95;;;;;;;4.68;66.65;99438.95;1782129;80;21200;-69
2021/04/08 08:32:01;;;;;;;18.32;14.58;;;;;;;4.73;66.76;99455.11;1760904;80;21026;-71
2021/04/08 08:34:39;;;;;;;14.95;12.95;;;;;;;4.71;66.10;99459.82;1775440;80;21129;-68
2021/04/08 08:37:10;;;;;;;17.50;12.73;;;;;;;4.69;66.18;99456.58;1753921;81;21566;-68
2021/04/08 08:39:41;;;;;;;17.50;14.35;;;;;;;4.62;66.26;99459.80;1772384;80;21414;-69
2021/04/08 08:42:11;;;;;;;17.75;14.05;;;;;;;4.61;65.93;99487.45;1782035;80;21138;-68
2021/04/08 08:44:39;;;;;;;13.53;12.05;;;;;;;4.62;66.03;99478.95;1762242;80;21165;-67
2021/04/08 08:47:27;;;;;;;17.67;12.98;;;;;;;4.62;65.97;99470.45;1751848;80;21593;-69
2021/04/08 08:50:10;;;;;;;15.13;13.55;;;;;;;4.64;66.23;99476.91;1751754;81;21166;-69
2021/04/08 08:52:42;;;;;;;;;;;;;;;4.66;65.23;99480.97;1754556;80;21382;-68
2021/04/08 08:55:14;;;;;;;13.98;11.35;;;;;;;4.66;64.61;99498.79;1778820;80;20482;-69
2021/04/08 08:57:51;;;;;;;18.77;13.15;;;;;;;4.68;64.34;99480.76;1784407;80;21086;-69
2021/04/08 09:00:26;;;;;;;13.22;11.20;;;;;;;4.67;64.19;99472.46;1761610;80;21562;-68
2021/04/08 09:02:58;;;;;;;17.40;13.85;;;;;;;4.68;63.41;99491.41;1783580;80;21122;-66
2021/04/08 09:05:29;;;;;;;15.70;11.50;;;;;;;4.69;63.27;99496.53;1784298;80;21353;-67
2021/04/08 09:08:06;;;;;;;16.10;12.15;;;;;;;4.76;63.87;99492.47;1783934;80;21168;-64
2021/04/08 09:10:39;;;;;;;17.05;13.32;;;;;;;4.88;63.39;99493.92;1758181;80;21161;-65
2021/04/08 09:13:08;;;;;;;19.92;12.47;;;;;;;4.97;62.84;99491.28;1783991;80;21089;-65
2021/04/08 09:15:37;;;;;;;12.37;10.85;;;;;;;5.06;62.67;99493.97;1784155;80;21139;-65
2021/04/08 09:18:08;;;;;;;14.03;11.30;;;;;;;5.11;61.93;99485.61;1784333;80;21361;-65
2021/04/08 09:20:38;;;;;;;14.25;10.93;;;;;;;5.17;62.42;99480.75;1776318;80;21532;-64
2021/04/08 09:23:12;;;;;;;12.90;11.60;;;;;;;5.26;61.76;99504.75;1751828;81;21224;-66
2021/04/08 09:25:53;;;;;;;12.88;9.78;;;;;;;5.32;60.18;99500.39;1778263;80;21165;-65
2021/04/08 09:28:26;;;;;;;12.85;11.45;;;;;;;5.33;59.75;99494.00;1780796;80;21603;-65
2021/04/08 09:33:46;;;;;;;15.63;11.75;;;;;;;5.43;60.39;99491.64;1774872;80;21168;-64
2021/04/08 09:36:27;;;;;;;12.82;11.43;;;;;;;5.59;60.55;99486.25;1776926;80;21122;-66
2021/04/08 09:39:04;;;;;;;15.18;10.08;;;;;;;5.73;59.34;99499.73;1777364;80;21642;-67
2021/04/08 09:41:51;;;;;;;9.58;8.55;;;;;;;5.81;58.40;99493.27;1748982;82;21066;-66
2021/04/08 09:44:20;;;;;;;12.70;9.55;;;;;;;5.89;57.67;99503.69;1748978;82;21208;-67
2021/04/08 09:47:00;;;;;;;12.65;9.28;;;;;;;5.94;56.46;99497.16;1748920;82;21611;-66
2021/04/08 09:49:43;;;;;;;10.95;9.83;;;;;;;5.93;55.79;99500.35;1766710;80;21143;-65
2021/04/08 09:52:12;;;;;;;14.75;9.08;;;;;;;5.96;55.87;99499.89;1779993;80;21618;-66
2021/04/08 09:54:54;;;;;;;12.40;10.00;;;;;;;6.02;55.36;99494.18;1780007;80;21605;-66
2021/04/08 09:57:38;;;;;;;14.95;10.88;;;;;;;6.01;54.71;99493.36;1776796;80;21254;-66
2021/04/08 10:00:17;;;;;;;;;;;;;;;6.01;54.71;99493.36;1751590;82;21109;-65
2021/04/08 10:03:06;;;;;;;9.60;7.55;;;;;;;6.04;54.93;99526.27;1751961;80;20573;-67
2021/04/08 10:05:39;;;;;;;9.25;6.75;;;;;;;6.23;51.76;99492.88;1729426;83;21024;-66
2021/04/08 10:08:12;;;;;;;9.28;7.47;;;;;;;6.23;51.76;99492.88;1750390;80;21109;-65
2021/04/08 10:10:44;;;;;;;9.00;8.10;;;;;;;6.31;51.16;99495.23;1729959;82;21060;-66
2021/04/08 10:13:29;;;;;;;9.05;8.10;;;;;;;6.36;50.65;99504.20;1767289;80;21165;-69
2021/04/08 10:16:12;;;;;;;8.88;7.15;;;;;;;6.30;50.93;99493.59;1729532;82;21159;-66
2021/04/08 10:18:44;;;;;;;10.75;7.58;;;;;;;6.32;51.12;99496.34;1760107;80;21152;-64
2021/04/08 10:21:17;;;;;;;7.95;7.15;;;;;;;6.31;50.98;99492.56;1763478;80;21181;-64
2021/04/08 10:23:51;;;;;;;8.70;6.97;;;;;;;6.36;50.76;99504.71;1754020;80;21193;-62
2021/04/08 10:29:08;;;;;;;11.63;8.07;;;;;;;6.45;50.61;99496.15;1857832;75;24121;-66
2021/04/08 10:31:38;;;;;;;9.45;7.25;;;;;;;6.39;50.43;99503.73;1787641;78;21003;-66
2021/04/08 10:34:14;;;;;;;8.23;6.35;;;;;;;6.37;50.17;99515.70;1773637;79;22295;-64
2021/04/08 10:36:54;;;;;;;7.33;6.60;;;;;;;6.41;50.16;99517.69;1746770;82;22271;-66
2021/04/08 10:39:25;;;;;;;10.48;8.23;;;;;;;6.50;50.62;99505.64;1751807;81;21147;-64
2021/04/08 10:42:07;;;;;;;8.23;5.90;;;;;;;6.63;49.81;99513.97;1752522;81;21043;-69
2021/04/08 10:44:41;;;;;;;7.28;6.28;;;;;;;6.76;48.01;99511.63;1738854;81;20988;-64
2021/04/08 10:47:22;;;;;;;7.42;6.47;;;;;;;6.87;47.27;99495.59;1812325;78;23465;-64
2021/04/08 10:49:58;;;;;;;9.00;5.50;;;;;;;7.01;46.16;99505.55;1808000;79;21058;-63
2021/04/08 10:52:32;;;;;;;9.78;6.15;;;;;;;7.04;45.84;99503.77;1817335;78;21643;-69
2021/04/08 10:55:05;;;;;;;7.75;5.65;;;;;;;7.07;45.39;99534.05;1726245;82;21061;-65
2021/04/08 10:57:33;;;;;;;8.45;5.30;;;;;;;7.08;45.19;99519.64;1809838;78;21098;-64
2021/04/08 11:00:03;;;;;;;8.58;6.08;;;;;;;7.14;45.36;99506.69;1818032;78;21186;-63
2021/04/08 11:02:33;;;;;;;4.87;4.15;;;;;;;7.25;45.64;99515.22;1817373;79;21063;-70
2021/04/08 11:05:06;;;;;;;6.22;4.22;;;;;;;7.40;43.99;99533.48;1818264;78;21160;-64
2021/04/08 11:07:43;;;;;;;6.53;4.67;;;;;;;7.52;43.10;99516.91;1810965;78;21658;-71
2021/04/08 11:10:19;;;;;;;6.60;3.92;;;;;;;7.53;43.42;99515.84;1721666;83;21185;-67
2021/04/08 11:12:48;;;;;;;5.40;4.28;;;;;;;7.58;42.01;99532.56;1803140;79;21357;-68
2021/04/08 11:15:24;;;;;;;4.80;3.90;;;;;;;7.56;41.98;99508.70;1802091;78;21575;-67
2021/04/08 11:17:59;;;;;;;4.42;3.95;;;;;;;7.57;42.19;99526.91;1797092;78;21219;-65
2021/04/08 11:20:43;;;;;;;5.12;4.55;;;;;;;7.69;42.67;99521.82;1794817;78;21520;-65
2021/04/08 11:23:11;;;;;;;5.03;3.90;;;;;;;7.78;42.10;99515.05;1804511;78;21634;-66
2021/04/08 11:25:39;;;;;;;4.30;3.90;;;;;;;7.74;41.11;99519.26;1749027;81;22363;-64
2021/04/08 11:28:08;;;;;;;8.03;6.70;;;;;;;7.76;41.76;99536.44;1720941;83;21215;-66
2021/04/08 11:30:41;;;;;;;10.25;6.87;;;;;;;7.81;41.70;99537.88;1712690;83;21598;-67
2021/04/08 11:33:23;;;;;;;6.80;5.07;;;;;;;7.81;41.63;99524.50;1784862;80;21169;-66
2021/04/08 11:35:50;;;;;;;7.72;5.28;;;;;;;7.70;42.35;99583.69;1786770;80;21151;-66
2021/04/08 11:38:20;;;;;;;10.45;6.55;;;;;;;7.40;49.84;99625.78;1786769;80;21436;-67
2021/04/08 11:41:07;;;;;;;7.87;6.25;;;;;;;6.76;56.83;99630.02;1759795;80;21011;-70
2021/04/08 11:43:50;;;;;;;7.47;5.92;;;;;;;6.09;60.17;99598.50;1781473;80;21182;-65
2021/04/08 11:46:31;;;;;;;7.87;7.08;;;;;;;5.42;64.80;99636.69;1711088;83;21114;-67
2021/04/08 11:48:59;;;;;;;6.42;5.55;;;;;;;4.92;67.49;99624.36;1786333;80;21566;-65
2021/04/08 11:51:30;;;;;;;7.45;5.67;;;;;;;4.51;70.30;99633.58;1786217;80;21195;-64
2021/04/08 11:54:10;;;;;;;8.98;5.30;;;;;;;4.21;71.50;99625.84;1771698;80;21239;-65
2021/04/08 11:56:41;;;;;;;6.80;5.28;;;;;;;4.03;71.93;99614.52;1703623;83;21602;-66
2021/04/08 11:59:21;;;;;;;6.97;6.28;;;;;;;3.98;72.43;99598.89;1720083;83;21157;-65
2021/04/08 12:01:52;;;;;;;10.23;8.65;;;;;;;4.05;73.20;99601.01;1703934;83;21107;-66